sensor_id;sensor_type;location;lat;lon;timestamp;pressure;altitude;pressure_sealevel;temperature;humidity
18436;BME280;9346;52.006;4.720;2023-05-23T00:01:39;101916.41;;;14.49;100.00
18436;BME280;9346;52.006;4.720;2023-05-23T00:04:09;101916.13;;;14.50;100.00
18436;BME280;9346;52.006;4.720;2023-05-23T00:06:41;101916.41;;;14.54;100.00
18436;BME280;9346;52.006;4.720;2023-05-23T00:09:09;101913.63;;;14.54;100.00
18436;BME280;9346;52.006;4.720;2023-05-23T00:11:36;101917.78;;;14.51;100.00
18436;BME280;9346;52.006;4.720;2023-05-23T00:14:03;101930.00;;;14.50;100.00
18436;BME280;9346;52.006;4.720;2023-05-23T00:16:32;101933.31;;;14.52;100.00
18436;BME280;9346;52.006;4.720;2023-05-23T00:18:59;101932.50;;;14.52;100.00
18436;BME280;9346;52.006;4.720;2023-05-23T00:21:28;101926.09;;;14.51;100.00
18436;BME280;9346;52.006;4.720;2023-05-23T00:23:57;101925.00;;;14.47;100.00
18436;BME280;9346;52.006;4.720;2023-05-23T00:26:24;101930.81;;;14.46;100.00
18436;BME280;9346;52.006;4.720;2023-05-23T00:28:54;101935.25;;;14.47;100.00
18436;BME280;9346;52.006;4.720;2023-05-23T00:31:21;101928.88;;;14.46;100.00
18436;BME280;9346;52.006;4.720;2023-05-23T00:33:48;101938.59;;;14.49;100.00
18436;BME280;9346;52.006;4.720;2023-05-23T00:36:15;101926.94;;;14.52;100.00
18436;BME280;9346;52.006;4.720;2023-05-23T00:38:44;101926.94;;;14.52;100.00
18436;BME280;9346;52.006;4.720;2023-05-23T00:41:11;101937.19;;;14.51;100.00
18436;BME280;9346;52.006;4.720;2023-05-23T00:43:38;101932.50;;;14.52;100.00
18436;BME280;9346;52.006;4.720;2023-05-23T00:46:05;101937.47;;;14.50;100.00
18436;BME280;9346;52.006;4.720;2023-05-23T00:48:33;101939.69;;;14.48;100.00
18436;BME280;9346;52.006;4.720;2023-05-23T00:51:02;101936.09;;;14.47;100.00
18436;BME280;9346;52.006;4.720;2023-05-23T00:53:29;101941.91;;;14.46;100.00
18436;BME280;9346;52.006;4.720;2023-05-23T00:55:58;101945.22;;;14.43;100.00
18436;BME280;9346;52.006;4.720;2023-05-23T00:58:25;101949.09;;;14.42;100.00
18436;BME280;9346;52.006;4.720;2023-05-23T01:00:52;101953.81;;;14.41;100.00
18436;BME280;9346;52.006;4.720;2023-05-23T01:03:20;101944.66;;;14.41;100.00
18436;BME280;9346;52.006;4.720;2023-05-23T01:05:47;101949.66;;;14.39;100.00
18436;BME280;9346;52.006;4.720;2023-05-23T01:08:15;101951.31;;;14.40;100.00
18436;BME280;9346;52.006;4.720;2023-05-23T01:10:42;101943.28;;;14.43;100.00
18436;BME280;9346;52.006;4.720;2023-05-23T01:13:19;101950.22;;;14.46;100.00
18436;BME280;9346;52.006;4.720;2023-05-23T01:15:51;101952.19;;;14.50;100.00
18436;BME280;9346;52.006;4.720;2023-05-23T01:18:26;101947.47;;;14.51;100.00
18436;BME280;9346;52.006;4.720;2023-05-23T01:20:58;101946.06;;;14.48;100.00
18436;BME280;9346;52.006;4.720;2023-05-23T01:26:32;101954.09;;;14.50;100.00
18436;BME280;9346;52.006;4.720;2023-05-23T01:29:08;101946.09;;;14.53;100.00
18436;BME280;9346;52.006;4.720;2023-05-23T01:31:39;101939.72;;;14.58;100.00
18436;BME280;9346;52.006;4.720;2023-05-23T01:34:09;101950.53;;;14.59;100.00
18436;BME280;9346;52.006;4.720;2023-05-23T01:36:39;101950.00;;;14.62;100.00
18436;BME280;9346;52.006;4.720;2023-05-23T01:39:06;101948.59;;;14.65;100.00
18436;BME280;9346;52.006;4.720;2023-05-23T01:41:33;101953.56;;;14.63;100.00
18436;BME280;9346;52.006;4.720;2023-05-23T01:44:00;101949.44;;;14.65;100.00
18436;BME280;9346;52.006;4.720;2023-05-23T01:46:29;101946.69;;;14.65;100.00
18436;BME280;9346;52.006;4.720;2023-05-23T01:48:59;101948.59;;;14.65;100.00
18436;BME280;9346;52.006;4.720;2023-05-23T01:51:26;101946.38;;;14.62;100.00
18436;BME280;9346;52.006;4.720;2023-05-23T01:53:53;101944.16;;;14.59;100.00
18436;BME280;9346;52.006;4.720;2023-05-23T01:56:21;101946.06;;;14.58;100.00
18436;BME280;9346;52.006;4.720;2023-05-23T01:58:48;101953.84;;;14.56;100.00
18436;BME280;9346;52.006;4.720;2023-05-23T02:01:15;101952.75;;;14.57;100.00
18436;BME280;9346;52.006;4.720;2023-05-23T02:03:44;101958.28;;;14.57;100.00
18436;BME280;9346;52.006;4.720;2023-05-23T02:06:11;101955.25;;;14.59;100.00
18436;BME280;9346;52.006;4.720;2023-05-23T02:08:38;101951.34;;;14.60;100.00
18436;BME280;9346;52.006;4.720;2023-05-23T02:11:05;101945.81;;;14.60;100.00
18436;BME280;9346;52.006;4.720;2023-05-23T02:13:33;101956.09;;;14.59;100.00
18436;BME280;9346;52.006;4.720;2023-05-23T02:15:59;101944.44;;;14.62;100.00
18436;BME280;9346;52.006;4.720;2023-05-23T02:18:27;101943.59;;;14.62;100.00
18436;BME280;9346;52.006;4.720;2023-05-23T02:20:56;101945.25;;;14.63;100.00
18436;BME280;9346;52.006;4.720;2023-05-23T02:23:23;101952.22;;;14.65;100.00
18436;BME280;9346;52.006;4.720;2023-05-23T02:25:50;101954.16;;;14.65;100.00
18436;BME280;9346;52.006;4.720;2023-05-23T02:28:17;101954.69;;;14.67;100.00
18436;BME280;9346;52.006;4.720;2023-05-23T02:30:44;101950.28;;;14.61;100.00
18436;BME280;9346;52.006;4.720;2023-05-23T02:33:11;101958.00;;;14.59;100.00
18436;BME280;9346;52.006;4.720;2023-05-23T02:35:38;101964.69;;;14.58;100.00
18436;BME280;9346;52.006;4.720;2023-05-23T02:38:08;101966.03;;;14.55;100.00
18436;BME280;9346;52.006;4.720;2023-05-23T02:40:34;101977.97;;;14.56;100.00
18436;BME280;9346;52.006;4.720;2023-05-23T02:43:02;101972.44;;;14.56;100.00
18436;BME280;9346;52.006;4.720;2023-05-23T02:45:29;101977.66;;;14.52;100.00
18436;BME280;9346;52.006;4.720;2023-05-23T02:47:56;101983.78;;;14.49;100.00
18436;BME280;9346;52.006;4.720;2023-05-23T02:50:23;101985.16;;;14.47;100.00
18436;BME280;9346;52.006;4.720;2023-05-23T02:52:51;101988.19;;;14.45;100.00
18436;BME280;9346;52.006;4.720;2023-05-23T02:55:19;101989.56;;;14.43;100.00
18436;BME280;9346;52.006;4.720;2023-05-23T02:57:46;101987.91;;;14.42;100.00
18436;BME280;9346;52.006;4.720;2023-05-23T03:00:14;101984.56;;;14.40;100.00
18436;BME280;9346;52.006;4.720;2023-05-23T03:02:41;101990.66;;;14.37;100.00
18436;BME280;9346;52.006;4.720;2023-05-23T03:05:08;101988.16;;;14.35;100.00
18436;BME280;9346;52.006;4.720;2023-05-23T03:07:35;101984.00;;;14.33;100.00
18436;BME280;9346;52.006;4.720;2023-05-23T03:10:03;101990.66;;;14.32;100.00
18436;BME280;9346;52.006;4.720;2023-05-23T03:12:31;101996.19;;;14.32;100.00
18436;BME280;9346;52.006;4.720;2023-05-23T03:14:58;101987.63;;;14.33;100.00
18436;BME280;9346;52.006;4.720;2023-05-23T03:17:25;101990.38;;;14.33;100.00
18436;BME280;9346;52.006;4.720;2023-05-23T03:19:51;101988.44;;;14.29;100.00
18436;BME280;9346;52.006;4.720;2023-05-23T03:22:19;101991.47;;;14.27;100.00
18436;BME280;9346;52.006;4.720;2023-05-23T03:24:46;101997.81;;;14.28;100.00
18436;BME280;9346;52.006;4.720;2023-05-23T03:27:13;101997.59;;;14.34;100.00
18436;BME280;9346;52.006;4.720;2023-05-23T03:29:41;101996.75;;;14.34;100.00
18436;BME280;9346;52.006;4.720;2023-05-23T03:32:08;102003.41;;;14.33;100.00
18436;BME280;9346;52.006;4.720;2023-05-23T03:34:37;101999.78;;;14.32;100.00
18436;BME280;9346;52.006;4.720;2023-05-23T03:37:04;101988.69;;;14.32;100.00
18436;BME280;9346;52.006;4.720;2023-05-23T03:39:31;102000.31;;;14.29;100.00
18436;BME280;9346;52.006;4.720;2023-05-23T03:41:58;102007.25;;;14.27;100.00
18436;BME280;9346;52.006;4.720;2023-05-23T03:44:25;101999.25;;;14.30;100.00
18436;BME280;9346;52.006;4.720;2023-05-23T03:46:53;102005.06;;;14.29;100.00
18436;BME280;9346;52.006;4.720;2023-05-23T03:49:20;102008.91;;;14.28;100.00
18436;BME280;9346;52.006;4.720;2023-05-23T03:51:48;102006.13;;;14.28;100.00
18436;BME280;9346;52.006;4.720;2023-05-23T03:54:15;102010.88;;;14.27;100.00
18436;BME280;9346;52.006;4.720;2023-05-23T03:56:43;102016.69;;;14.26;100.00
18436;BME280;9346;52.006;4.720;2023-05-23T03:59:10;102012.72;;;14.17;100.00
18436;BME280;9346;52.006;4.720;2023-05-23T04:01:37;102025.72;;;14.16;100.00
18436;BME280;9346;52.006;4.720;2023-05-23T04:04:05;102024.66;;;14.17;100.00
18436;BME280;9346;52.006;4.720;2023-05-23T04:06:32;102035.47;;;14.19;100.00
18436;BME280;9346;52.006;4.720;2023-05-23T04:08:59;102021.88;;;14.17;100.00
18436;BME280;9346;52.006;4.720;2023-05-23T04:11:27;102029.34;;;14.17;100.00
18436;BME280;9346;52.006;4.720;2023-05-23T04:13:54;102034.84;;;14.12;100.00
18436;BME280;9346;52.006;4.720;2023-05-23T04:16:21;102040.59;;;14.00;100.00
18436;BME280;9346;52.006;4.720;2023-05-23T04:18:48;102041.13;;;13.97;100.00
18436;BME280;9346;52.006;4.720;2023-05-23T04:21:17;102045.84;;;13.97;100.00
18436;BME280;9346;52.006;4.720;2023-05-23T04:23:44;102036.44;;;13.98;100.00
18436;BME280;9346;52.006;4.720;2023-05-23T04:26:12;102035.84;;;13.96;100.00
18436;BME280;9346;52.006;4.720;2023-05-23T04:28:39;102036.97;;;13.90;100.00
18436;BME280;9346;52.006;4.720;2023-05-23T04:31:08;102038.84;;;13.84;100.00
18436;BME280;9346;52.006;4.720;2023-05-23T04:33:35;102046.34;;;13.84;100.00
18436;BME280;9346;52.006;4.720;2023-05-23T04:36:01;102047.41;;;13.83;100.00
18436;BME280;9346;52.006;4.720;2023-05-23T04:38:30;102048.25;;;13.83;100.00
18436;BME280;9346;52.006;4.720;2023-05-23T04:40:57;102052.69;;;13.84;100.00
18436;BME280;9346;52.006;4.720;2023-05-23T04:43:24;102051.34;;;13.87;100.00
18436;BME280;9346;52.006;4.720;2023-05-23T04:45:53;102056.88;;;13.87;100.00
18436;BME280;9346;52.006;4.720;2023-05-23T04:48:22;102056.34;;;13.90;100.00
18436;BME280;9346;52.006;4.720;2023-05-23T04:50:49;102067.97;;;13.92;100.00
18436;BME280;9346;52.006;4.720;2023-05-23T04:53:16;102064.38;;;13.91;100.00
18436;BME280;9346;52.006;4.720;2023-05-23T04:55:45;102077.41;;;13.91;100.00
18436;BME280;9346;52.006;4.720;2023-05-23T04:58:12;102067.09;;;13.86;100.00
18436;BME280;9346;52.006;4.720;2023-05-23T05:00:39;102067.63;;;13.83;100.00
18436;BME280;9346;52.006;4.720;2023-05-23T05:03:06;102071.47;;;13.77;100.00
18436;BME280;9346;52.006;4.720;2023-05-23T05:05:34;102080.03;;;13.71;100.00
18436;BME280;9346;52.006;4.720;2023-05-23T05:08:00;102082.47;;;13.67;100.00
18436;BME280;9346;52.006;4.720;2023-05-23T05:10:28;102090.47;;;13.64;100.00
18436;BME280;9346;52.006;4.720;2023-05-23T05:12:56;102087.16;;;13.67;100.00
18436;BME280;9346;52.006;4.720;2023-05-23T05:15:23;102083.31;;;13.68;100.00
18436;BME280;9346;52.006;4.720;2023-05-23T05:17:50;102096.63;;;13.71;100.00
18436;BME280;9346;52.006;4.720;2023-05-23T05:20:17;102091.03;;;13.66;100.00
18436;BME280;9346;52.006;4.720;2023-05-23T05:22:46;102097.69;;;13.65;100.00
18436;BME280;9346;52.006;4.720;2023-05-23T05:25:13;102099.09;;;13.67;100.00
18436;BME280;9346;52.006;4.720;2023-05-23T05:27:40;102096.31;;;13.67;100.00
18436;BME280;9346;52.006;4.720;2023-05-23T05:30:10;102101.59;;;13.69;100.00
18436;BME280;9346;52.006;4.720;2023-05-23T05:32:37;102104.88;;;13.66;100.00
18436;BME280;9346;52.006;4.720;2023-05-23T05:35:05;102110.41;;;13.66;100.00
18436;BME280;9346;52.006;4.720;2023-05-23T05:37:32;102102.69;;;13.68;100.00
18436;BME280;9346;52.006;4.720;2023-05-23T05:39:59;102122.34;;;13.66;100.00
18436;BME280;9346;52.006;4.720;2023-05-23T05:42:30;102112.94;;;13.67;100.00
18436;BME280;9346;52.006;4.720;2023-05-23T05:44:57;102119.50;;;13.61;100.00
18436;BME280;9346;52.006;4.720;2023-05-23T05:47:26;102119.22;;;13.58;100.00
18436;BME280;9346;52.006;4.720;2023-05-23T05:49:53;102125.84;;;13.57;100.00
18436;BME280;9346;52.006;4.720;2023-05-23T05:52:19;102120.56;;;13.55;100.00
18436;BME280;9346;52.006;4.720;2023-05-23T05:54:47;102130.03;;;13.59;100.00
18436;BME280;9346;52.006;4.720;2023-05-23T05:57:14;102118.69;;;13.61;100.00
18436;BME280;9346;52.006;4.720;2023-05-23T05:59:41;102127.00;;;13.61;100.00
18436;BME280;9346;52.006;4.720;2023-05-23T06:02:07;102129.78;;;13.61;100.00
18436;BME280;9346;52.006;4.720;2023-05-23T06:04:35;102135.06;;;13.62;100.00
18436;BME280;9346;52.006;4.720;2023-05-23T06:07:02;102133.94;;;13.63;100.00
18436;BME280;9346;52.006;4.720;2023-05-23T06:09:29;102133.69;;;13.65;100.00
18436;BME280;9346;52.006;4.720;2023-05-23T06:11:56;102135.06;;;13.62;100.00
18436;BME280;9346;52.006;4.720;2023-05-23T06:14:23;102139.75;;;13.62;100.00
18436;BME280;9346;52.006;4.720;2023-05-23T06:16:50;102148.91;;;13.62;100.00
18436;BME280;9346;52.006;4.720;2023-05-23T06:19:17;102148.59;;;13.64;100.00
18436;BME280;9346;52.006;4.720;2023-05-23T06:21:47;102147.53;;;13.65;100.00
18436;BME280;9346;52.006;4.720;2023-05-23T06:24:13;102140.94;;;13.71;100.00
18436;BME280;9346;52.006;4.720;2023-05-23T06:26:40;102139.56;;;13.73;100.00
18436;BME280;9346;52.006;4.720;2023-05-23T06:29:07;102147.88;;;13.73;100.00
18436;BME280;9346;52.006;4.720;2023-05-23T06:31:34;102145.63;;;13.70;100.00
18436;BME280;9346;52.006;4.720;2023-05-23T06:34:01;102153.69;;;13.72;100.00
18436;BME280;9346;52.006;4.720;2023-05-23T06:36:28;102158.06;;;13.68;100.00
18436;BME280;9346;52.006;4.720;2023-05-23T06:38:57;102156.66;;;13.65;100.00
18436;BME280;9346;52.006;4.720;2023-05-23T06:41:24;102148.91;;;13.62;100.00
18436;BME280;9346;52.006;4.720;2023-05-23T06:43:51;102155.84;;;13.65;100.00
18436;BME280;9346;52.006;4.720;2023-05-23T06:46:18;102154.97;;;13.64;100.00
18436;BME280;9346;52.006;4.720;2023-05-23T06:48:45;102167.97;;;13.64;100.00
18436;BME280;9346;52.006;4.720;2023-05-23T06:51:12;102167.97;;;13.64;100.00
18436;BME280;9346;52.006;4.720;2023-05-23T06:53:39;102163.00;;;13.61;100.00
18436;BME280;9346;52.006;4.720;2023-05-23T06:56:09;102169.69;;;13.65;100.00
18436;BME280;9346;52.006;4.720;2023-05-23T06:58:37;102163.63;;;13.68;100.00
18436;BME280;9346;52.006;4.720;2023-05-23T07:01:04;102167.38;;;13.57;100.00
18436;BME280;9346;52.006;4.720;2023-05-23T07:03:31;102168.22;;;13.57;100.00
18436;BME280;9346;52.006;4.720;2023-05-23T07:05:58;102181.78;;;13.59;100.00
18436;BME280;9346;52.006;4.720;2023-05-23T07:08:25;102169.88;;;13.58;100.00
18436;BME280;9346;52.006;4.720;2023-05-23T07:10:52;102176.59;;;13.62;100.00
18436;BME280;9346;52.006;4.720;2023-05-23T07:13:20;102183.88;;;13.73;100.00
18436;BME280;9346;52.006;4.720;2023-05-23T07:15:47;102168.97;;;13.79;100.00
18436;BME280;9346;52.006;4.720;2023-05-23T07:18:14;102177.06;;;13.86;100.00
18436;BME280;9346;52.006;4.720;2023-05-23T07:20:44;102180.13;;;13.89;100.00
18436;BME280;9346;52.006;4.720;2023-05-23T07:23:10;102183.44;;;13.86;100.00
18436;BME280;9346;52.006;4.720;2023-05-23T07:25:38;102183.75;;;13.90;100.00
18436;BME280;9346;52.006;4.720;2023-05-23T07:28:06;102181.53;;;13.92;100.00
18436;BME280;9346;52.006;4.720;2023-05-23T07:30:35;102185.72;;;13.94;100.00
18436;BME280;9346;52.006;4.720;2023-05-23T07:33:03;102175.75;;;13.93;100.00
18436;BME280;9346;52.006;4.720;2023-05-23T07:35:30;102187.69;;;13.99;100.00
18436;BME280;9346;52.006;4.720;2023-05-23T07:37:57;102180.00;;;14.06;100.00
18436;BME280;9346;52.006;4.720;2023-05-23T07:40:24;102192.22;;;14.10;100.00
18436;BME280;9346;52.006;4.720;2023-05-23T07:42:51;102184.00;;;14.20;100.00
18436;BME280;9346;52.006;4.720;2023-05-23T07:45:20;102183.25;;;14.29;100.00
18436;BME280;9346;52.006;4.720;2023-05-23T07:47:48;102186.34;;;14.38;100.00
18436;BME280;9346;52.006;4.720;2023-05-23T07:50:14;102201.63;;;14.40;100.00
18436;BME280;9346;52.006;4.720;2023-05-23T07:52:42;102186.41;;;14.43;100.00
18436;BME280;9346;52.006;4.720;2023-05-23T07:55:09;102198.34;;;14.43;100.00
18436;BME280;9346;52.006;4.720;2023-05-23T07:57:36;102194.72;;;14.43;100.00
18436;BME280;9346;52.006;4.720;2023-05-23T08:00:04;102197.81;;;14.51;100.00
18436;BME280;9346;52.006;4.720;2023-05-23T08:02:31;102203.13;;;14.58;100.00
18436;BME280;9346;52.006;4.720;2023-05-23T08:04:59;102205.91;;;14.58;100.00
18436;BME280;9346;52.006;4.720;2023-05-23T08:07:26;102192.88;;;14.58;100.00
18436;BME280;9346;52.006;4.720;2023-05-23T08:09:53;102195.38;;;14.60;100.00
18436;BME280;9346;52.006;4.720;2023-05-23T08:12:20;102203.19;;;14.68;100.00
18436;BME280;9346;52.006;4.720;2023-05-23T08:14:47;102207.06;;;14.67;100.00
18436;BME280;9346;52.006;4.720;2023-05-23T08:17:14;102210.97;;;14.71;100.00
18436;BME280;9346;52.006;4.720;2023-05-23T08:19:41;102203.25;;;14.78;100.00
18436;BME280;9346;52.006;4.720;2023-05-23T08:22:09;102220.78;;;14.88;100.00
18436;BME280;9346;52.006;4.720;2023-05-23T08:24:36;102210.00;;;14.97;100.00
18436;BME280;9346;52.006;4.720;2023-05-23T08:27:04;102217.78;;;15.05;100.00
18436;BME280;9346;52.006;4.720;2023-05-23T08:29:32;102215.63;;;15.17;100.00
18436;BME280;9346;52.006;4.720;2023-05-23T08:31:59;102213.97;;;15.21;100.00
18436;BME280;9346;52.006;4.720;2023-05-23T08:34:26;102224.53;;;15.24;100.00
18436;BME280;9346;52.006;4.720;2023-05-23T08:36:53;102225.38;;;15.29;100.00
18436;BME280;9346;52.006;4.720;2023-05-23T08:39:22;102222.31;;;15.21;100.00
18436;BME280;9346;52.006;4.720;2023-05-23T08:41:48;102221.16;;;15.12;100.00
18436;BME280;9346;52.006;4.720;2023-05-23T08:44:16;102219.53;;;15.16;100.00
18436;BME280;9346;52.006;4.720;2023-05-23T08:46:44;102224.53;;;15.19;100.00
18436;BME280;9346;52.006;4.720;2023-05-23T08:49:16;102222.88;;;15.23;100.00
18436;BME280;9346;52.006;4.720;2023-05-23T08:51:44;102230.94;;;15.24;100.00
18436;BME280;9346;52.006;4.720;2023-05-23T08:54:12;102216.47;;;15.22;100.00
18436;BME280;9346;52.006;4.720;2023-05-23T08:56:42;102223.41;;;15.25;100.00
18436;BME280;9346;52.006;4.720;2023-05-23T08:59:10;102224.53;;;15.24;100.00
18436;BME280;9346;52.006;4.720;2023-05-23T09:01:38;102227.34;;;15.29;100.00
18436;BME280;9346;52.006;4.720;2023-05-23T09:04:06;102232.97;;;15.39;100.00
18436;BME280;9346;52.006;4.720;2023-05-23T09:06:33;102235.19;;;15.42;100.00
18436;BME280;9346;52.006;4.720;2023-05-23T09:09:01;102229.09;;;15.45;100.00
18436;BME280;9346;52.006;4.720;2023-05-23T09:11:29;102241.59;;;15.47;100.00
18436;BME280;9346;52.006;4.720;2023-05-23T09:14:00;102245.50;;;15.46;100.00
18436;BME280;9346;52.006;4.720;2023-05-23T09:16:31;102247.19;;;15.52;100.00
18436;BME280;9346;52.006;4.720;2023-05-23T09:19:09;102243.56;;;15.57;100.00
18436;BME280;9346;52.006;4.720;2023-05-23T09:21:35;102248.31;;;15.67;100.00
18436;BME280;9346;52.006;4.720;2023-05-23T09:24:04;102254.69;;;15.62;100.00
18436;BME280;9346;52.006;4.720;2023-05-23T09:26:31;102244.69;;;15.66;100.00
18436;BME280;9346;52.006;4.720;2023-05-23T09:29:04;102241.66;;;15.63;100.00
18436;BME280;9346;52.006;4.720;2023-05-23T09:31:31;102247.44;;;15.56;100.00
18436;BME280;9346;52.006;4.720;2023-05-23T09:33:58;102250.78;;;15.63;100.00
18436;BME280;9346;52.006;4.720;2023-05-23T09:36:26;102257.25;;;15.79;100.00
18436;BME280;9346;52.006;4.720;2023-05-23T09:38:53;102260.84;;;15.84;100.00
18436;BME280;9346;52.006;4.720;2023-05-23T09:41:22;102255.84;;;15.86;100.00
18436;BME280;9346;52.006;4.720;2023-05-23T09:43:51;102258.94;;;15.95;100.00
18436;BME280;9346;52.006;4.720;2023-05-23T09:46:21;102262.00;;;16.03;100.00
18436;BME280;9346;52.006;4.720;2023-05-23T09:48:49;102264.22;;;16.06;100.00
18436;BME280;9346;52.006;4.720;2023-05-23T09:51:18;102258.94;;;16.10;100.00
18436;BME280;9346;52.006;4.720;2023-05-23T09:53:47;102261.97;;;16.28;100.00
18436;BME280;9346;52.006;4.720;2023-05-23T09:56:15;102251.72;;;16.34;100.00
18436;BME280;9346;52.006;4.720;2023-05-23T09:58:45;102257.00;;;16.30;100.00
18436;BME280;9346;52.006;4.720;2023-05-23T10:01:13;102257.56;;;16.32;100.00
18436;BME280;9346;52.006;4.720;2023-05-23T10:03:44;102260.91;;;16.29;100.00
18436;BME280;9346;52.006;4.720;2023-05-23T10:06:16;102263.09;;;16.27;100.00
18436;BME280;9346;52.006;4.720;2023-05-23T10:08:45;102263.09;;;16.27;100.00
18436;BME280;9346;52.006;4.720;2023-05-23T10:14:16;102258.94;;;16.35;100.00
18436;BME280;9346;52.006;4.720;2023-05-23T10:16:52;102260.91;;;16.44;100.00
18436;BME280;9346;52.006;4.720;2023-05-23T10:19:26;102264.25;;;16.41;100.00
18436;BME280;9346;52.006;4.720;2023-05-23T10:21:59;102274.25;;;16.32;100.00
18436;BME280;9346;52.006;4.720;2023-05-23T10:24:27;102257.53;;;16.27;100.00
18436;BME280;9346;52.006;4.720;2023-05-23T10:26:54;102273.13;;;16.38;100.00
18436;BME280;9346;52.006;4.720;2023-05-23T10:29:21;102276.75;;;16.49;100.00
18436;BME280;9346;52.006;4.720;2023-05-23T10:31:49;102267.59;;;16.48;100.00
18436;BME280;9346;52.006;4.720;2023-05-23T10:34:24;102273.41;;;16.52;100.00
18436;BME280;9346;52.006;4.720;2023-05-23T10:36:59;102281.72;;;16.42;100.00
18436;BME280;9346;52.006;4.720;2023-05-23T10:39:44;102280.94;;;16.41;100.00
18436;BME280;9346;52.006;4.720;2023-05-23T10:42:16;102288.16;;;16.32;100.00
18436;BME280;9346;52.006;4.720;2023-05-23T10:44:45;102291.19;;;16.21;100.00
18436;BME280;9346;52.006;4.720;2023-05-23T10:47:24;102286.75;;;16.25;100.00
18436;BME280;9346;52.006;4.720;2023-05-23T10:49:54;102292.34;;;16.45;100.00
18436;BME280;9346;52.006;4.720;2023-05-23T10:52:23;102282.06;;;16.55;100.00
18436;BME280;9346;52.006;4.720;2023-05-23T10:54:53;102271.47;;;16.52;100.00
18436;BME280;9346;52.006;4.720;2023-05-23T10:57:24;102272.03;;;16.49;100.00
18436;BME280;9346;52.006;4.720;2023-05-23T10:59:52;102281.19;;;16.35;100.00
18436;BME280;9346;52.006;4.720;2023-05-23T11:02:25;102285.91;;;16.24;100.00
18436;BME280;9346;52.006;4.720;2023-05-23T11:08:10;102290.09;;;16.27;100.00
18436;BME280;9346;52.006;4.720;2023-05-23T11:10:59;102283.97;;;16.35;100.00
18436;BME280;9346;52.006;4.720;2023-05-23T11:13:55;102285.34;;;16.37;100.00
18436;BME280;9346;52.006;4.720;2023-05-23T11:16:28;102287.91;;;16.44;100.00
18436;BME280;9346;52.006;4.720;2023-05-23T11:19:21;102282.59;;;16.42;100.00
18436;BME280;9346;52.006;4.720;2023-05-23T11:21:52;102269.25;;;16.49;100.00
18436;BME280;9346;52.006;4.720;2023-05-23T11:24:22;102279.81;;;16.52;100.00
18436;BME280;9346;52.006;4.720;2023-05-23T11:26:53;102284.84;;;16.55;100.00
18436;BME280;9346;52.006;4.720;2023-05-23T11:29:24;102283.16;;;16.59;100.00
18436;BME280;9346;52.006;4.720;2023-05-23T11:31:53;102290.94;;;16.57;100.00
18436;BME280;9346;52.006;4.720;2023-05-23T11:34:21;102289.84;;;16.58;100.00
18436;BME280;9346;52.006;4.720;2023-05-23T11:36:52;102300.13;;;16.48;100.00
18436;BME280;9346;52.006;4.720;2023-05-23T11:39:21;102303.72;;;16.38;100.00
18436;BME280;9346;52.006;4.720;2023-05-23T11:41:58;102293.69;;;16.37;100.00
18436;BME280;9346;52.006;4.720;2023-05-23T11:44:25;102292.63;;;16.43;100.00
18436;BME280;9346;52.006;4.720;2023-05-23T11:46:59;102281.22;;;16.55;100.00
18436;BME280;9346;52.006;4.720;2023-05-23T11:49:27;102289.00;;;16.63;100.00
18436;BME280;9346;52.006;4.720;2023-05-23T11:51:54;102300.41;;;16.71;100.00
18436;BME280;9346;52.006;4.720;2023-05-23T11:54:23;102300.13;;;16.73;100.00
18436;BME280;9346;52.006;4.720;2023-05-23T11:56:51;102299.81;;;16.79;100.00
18436;BME280;9346;52.006;4.720;2023-05-23T11:59:18;102294.25;;;16.84;100.00
18436;BME280;9346;52.006;4.720;2023-05-23T12:01:45;102305.91;;;16.86;100.00
18436;BME280;9346;52.006;4.720;2023-05-23T12:04:12;102300.06;;;16.88;100.00
18436;BME280;9346;52.006;4.720;2023-05-23T12:06:39;102295.94;;;16.80;100.00
18436;BME280;9346;52.006;4.720;2023-05-23T12:09:07;102289.81;;;16.78;100.00
18436;BME280;9346;52.006;4.720;2023-05-23T12:11:36;102299.81;;;16.79;100.00
18436;BME280;9346;52.006;4.720;2023-05-23T12:14:03;102296.50;;;16.77;100.00
18436;BME280;9346;52.006;4.720;2023-05-23T12:16:30;102295.38;;;16.78;100.00
18436;BME280;9346;52.006;4.720;2023-05-23T12:19:00;102302.59;;;16.84;100.00
18436;BME280;9346;52.006;4.720;2023-05-23T12:21:39;102300.34;;;16.86;100.00
18436;BME280;9346;52.006;4.720;2023-05-23T12:24:13;102303.44;;;16.85;100.00
18436;BME280;9346;52.006;4.720;2023-05-23T12:26:58;102298.69;;;16.85;100.00
18436;BME280;9346;52.006;4.720;2023-05-23T12:29:28;102303.72;;;16.83;100.00
18436;BME280;9346;52.006;4.720;2023-05-23T12:31:57;102312.31;;;16.87;100.00
18436;BME280;9346;52.006;4.720;2023-05-23T12:34:24;102311.22;;;16.93;100.00
18436;BME280;9346;52.006;4.720;2023-05-23T12:36:53;102311.50;;;16.91;100.00
18436;BME280;9346;52.006;4.720;2023-05-23T12:39:23;102314.00;;;16.93;100.00
18436;BME280;9346;52.006;4.720;2023-05-23T12:41:51;102301.19;;;16.97;100.00
18436;BME280;9346;52.006;4.720;2023-05-23T12:44:22;102297.84;;;17.05;100.00
18436;BME280;9346;52.006;4.720;2023-05-23T12:46:49;102296.94;;;17.14;100.00
18436;BME280;9346;52.006;4.720;2023-05-23T12:49:16;102308.09;;;17.14;100.00
18436;BME280;9346;52.006;4.720;2023-05-23T12:51:42;102295.88;;;17.10;100.00
18436;BME280;9346;52.006;4.720;2023-05-23T12:54:10;102295.03;;;17.05;100.00
18436;BME280;9346;52.006;4.720;2023-05-23T12:56:36;102308.44;;;16.98;100.00
18436;BME280;9346;52.006;4.720;2023-05-23T12:59:03;102303.41;;;16.90;100.00
18436;BME280;9346;52.006;4.720;2023-05-23T13:01:33;102300.06;;;16.88;100.00
18436;BME280;9346;52.006;4.720;2023-05-23T13:04:00;102307.03;;;16.95;100.00
18436;BME280;9346;52.006;4.720;2023-05-23T13:06:27;102300.88;;;17.08;100.00